createdAt,value
2022-09-15T00:01:44.296Z,2.30
2022-09-15T00:04:46.796Z,2.72
2022-09-15T00:07:49.016Z,2.62
2022-09-15T00:11:04.051Z,3.05
2022-09-15T00:14:08.223Z,2.70
2022-09-15T00:17:10.999Z,3.28
2022-09-15T00:20:13.302Z,2.58
2022-09-15T00:23:17.937Z,3.03
2022-09-15T00:26:22.989Z,2.97
2022-09-15T00:29:25.522Z,2.65
2022-09-15T00:32:28.168Z,3.20
2022-09-15T00:35:30.764Z,2.75
2022-09-15T00:38:34.193Z,2.67
2022-09-15T00:41:39.334Z,2.85
2022-09-15T00:45:00.208Z,3.08
2022-09-15T00:48:04.786Z,2.60
2022-09-15T00:51:10.229Z,2.83
2022-09-15T00:54:21.986Z,2.40
2022-09-15T00:57:33.997Z,3.00
2022-09-15T01:00:36.869Z,2.95
2022-09-15T01:03:39.477Z,2.92
2022-09-15T01:06:54.029Z,3.25
2022-09-15T01:10:00.531Z,2.87
2022-09-15T01:13:08.749Z,2.80
2022-09-15T01:16:35.744Z,2.90
2022-09-15T01:20:29.368Z,3.20
2022-09-15T01:23:34.361Z,3.85
2022-09-15T01:26:46.532Z,3.08
2022-09-15T01:30:18.144Z,3.37
2022-09-15T01:33:57.295Z,3.55
2022-09-15T01:37:06.235Z,3.00
2022-09-15T01:40:10.710Z,2.95
2022-09-15T01:43:14.992Z,3.50
2022-09-15T01:46:21.841Z,3.78
2022-09-15T01:49:30.371Z,3.37
2022-09-15T01:52:33.712Z,3.20
2022-09-15T01:55:43.094Z,3.22
2022-09-15T01:58:45.773Z,3.60
2022-09-15T02:02:12.701Z,2.60
2022-09-15T02:05:30.239Z,3.22
2022-09-15T02:08:52.433Z,3.12
2022-09-15T02:12:07.855Z,3.10
2022-09-15T02:15:15.034Z,3.05
2022-09-15T02:18:30.960Z,3.40
2022-09-15T02:21:36.380Z,2.80
2022-09-15T02:24:44.220Z,3.30
2022-09-15T02:27:52.696Z,3.40
2022-09-15T02:30:58.492Z,3.08
2022-09-15T02:34:07.857Z,3.25
2022-09-15T02:37:11.585Z,3.33
2022-09-15T02:40:14.017Z,3.50
2022-09-15T02:43:18.861Z,3.35
2022-09-15T02:46:22.759Z,3.78
2022-09-15T02:49:25.305Z,3.00
2022-09-15T02:52:27.549Z,2.87
2022-09-15T02:55:30.263Z,3.45
2022-09-15T02:58:35.688Z,3.28
2022-09-15T03:01:39.300Z,2.83
2022-09-15T03:04:42.099Z,2.55
2022-09-15T03:07:44.921Z,2.90
2022-09-15T03:10:47.193Z,2.78
2022-09-15T03:13:54.198Z,2.97
2022-09-15T03:16:58.344Z,3.22
2022-09-15T03:20:01.189Z,3.10
2022-09-15T03:23:03.490Z,2.75
2022-09-15T03:26:09.130Z,2.22
2022-09-15T03:29:11.449Z,2.70
2022-09-15T03:32:14.053Z,2.87
2022-09-15T03:35:16.356Z,2.12
2022-09-15T03:38:19.596Z,2.53
2022-09-15T03:41:21.799Z,1.87
2022-09-15T03:44:24.662Z,1.60
2022-09-15T03:58:31.040Z,1.60
2022-09-15T04:01:35.798Z,1.67
2022-09-15T04:04:39.116Z,1.70
2022-09-15T04:07:42.339Z,1.67
2022-09-15T04:10:45.875Z,1.60
2022-09-15T04:13:52.662Z,1.80
2022-09-15T04:16:56.212Z,1.50
2022-09-15T04:19:58.978Z,1.70
2022-09-15T04:23:02.452Z,1.73
2022-09-15T04:26:12.006Z,1.67
2022-09-15T04:29:16.674Z,1.65
2022-09-15T04:32:20.787Z,1.73
2022-09-15T04:35:24.103Z,1.48
2022-09-15T04:38:26.979Z,2.65
2022-09-15T04:41:30.565Z,1.80
2022-09-15T04:44:35.123Z,1.50
2022-09-15T04:47:38.393Z,1.50
2022-09-15T04:50:41.176Z,1.60
2022-09-15T04:53:44.801Z,2.35
2022-09-15T04:56:49.074Z,1.50
2022-09-15T04:59:52.315Z,1.85
2022-09-15T05:02:55.072Z,1.92
2022-09-15T05:05:58.417Z,2.00
2022-09-15T05:09:01.334Z,1.62
2022-09-15T05:12:04.645Z,1.40
2022-09-15T05:15:07.929Z,1.92
2022-09-15T05:18:10.771Z,2.20
2022-09-15T05:21:15.369Z,1.80
2022-09-15T05:24:18.162Z,2.00
2022-09-15T05:27:20.656Z,2.17
2022-09-15T05:30:37.131Z,2.33
2022-09-15T05:33:40.957Z,2.10
2022-09-15T05:36:44.101Z,1.90
2022-09-15T05:39:47.055Z,2.08
2022-09-15T05:42:51.481Z,2.25
2022-09-15T05:45:55.354Z,2.17
2022-09-15T05:48:59.305Z,2.08
2022-09-15T05:52:03.888Z,2.40
2022-09-15T05:55:07.455Z,2.10
2022-09-15T05:58:18.438Z,2.28
2022-09-15T06:17:39.020Z,2.47
2022-09-15T06:26:07.553Z,2.25
2022-09-15T06:29:35.690Z,2.10
2022-09-15T06:32:48.122Z,2.20
2022-09-15T06:35:51.796Z,1.92
2022-09-15T06:38:55.082Z,2.10
2022-09-15T06:42:02.796Z,1.90
2022-09-15T06:45:07.132Z,3.20
2022-09-15T06:48:23.918Z,2.42
2022-09-15T06:51:31.414Z,2.30
2022-09-15T06:54:33.988Z,2.12
2022-09-15T06:57:37.067Z,1.98
2022-09-15T07:00:39.604Z,2.08
2022-09-15T07:03:44.485Z,2.37
2022-09-15T07:07:07.190Z,2.55
2022-09-15T07:10:35.017Z,2.03
2022-09-15T07:13:40.215Z,2.28
2022-09-15T07:16:43.833Z,2.22
2022-09-15T07:20:19.210Z,2.20
2022-09-15T07:23:24.133Z,2.05
2022-09-15T07:26:34.373Z,2.85
2022-09-15T07:30:17.626Z,1.87
2022-09-15T07:33:27.696Z,1.98
2022-09-15T07:40:26.052Z,1.80
2022-09-15T07:43:34.388Z,1.67
2022-09-15T07:47:02.131Z,1.50
2022-09-15T08:12:23.792Z,1.27
2022-09-15T08:15:27.433Z,1.35
2022-09-15T08:18:30.565Z,1.60
2022-09-15T08:21:33.007Z,1.55
2022-09-15T08:24:35.471Z,1.60
2022-09-15T08:27:37.991Z,1.60
2022-09-15T08:30:40.100Z,1.87
2022-09-15T08:33:45.720Z,1.80
2022-09-15T08:36:48.215Z,1.73
2022-09-15T08:39:51.614Z,1.65
2022-09-15T08:42:58.300Z,1.65
2022-09-15T08:46:06.102Z,1.20
2022-09-15T08:49:23.479Z,1.00
2022-09-15T08:52:54.256Z,1.30
2022-09-15T08:56:00.370Z,1.17
2022-09-15T08:59:05.613Z,1.17
2022-09-15T09:02:26.800Z,0.95
2022-09-15T09:06:05.598Z,1.12
2022-09-15T09:09:48.498Z,0.90
2022-09-15T09:13:30.970Z,1.08
2022-09-15T09:17:10.029Z,1.15
2022-09-15T09:20:54.520Z,0.95
2022-09-15T09:24:03.872Z,0.82
2022-09-15T09:27:13.195Z,1.17
2022-09-15T09:30:18.984Z,0.90
2022-09-15T09:33:47.923Z,0.98
2022-09-15T09:37:09.167Z,0.80
2022-09-15T09:40:15.781Z,0.73
2022-09-15T09:43:18.689Z,0.80
2022-09-15T09:46:22.157Z,0.90
2022-09-15T09:49:26.385Z,1.12
2022-09-15T09:52:39.485Z,0.62
2022-09-15T09:55:46.145Z,1.10
2022-09-15T09:58:49.090Z,1.20
2022-09-15T10:02:11.467Z,0.82
2022-09-15T10:05:19.664Z,0.90
2022-09-15T10:08:21.794Z,0.65
2022-09-15T10:11:46.159Z,0.88
2022-09-15T10:14:52.646Z,0.62
2022-09-15T10:17:56.960Z,1.23
2022-09-15T10:21:00.818Z,0.70
2022-09-15T10:24:34.659Z,0.70
2022-09-15T10:27:37.371Z,0.50
2022-09-15T10:31:22.818Z,0.70
2022-09-15T10:34:40.996Z,0.90
2022-09-15T10:37:45.377Z,0.55
2022-09-15T10:41:18.403Z,0.95
2022-09-15T10:44:59.436Z,0.90
2022-09-15T10:48:37.041Z,0.80
2022-09-15T10:52:08.233Z,0.95
2022-09-15T10:55:53.034Z,1.10
2022-09-15T10:59:34.628Z,0.95
2022-09-15T11:03:28.702Z,1.02
2022-09-15T11:11:28.226Z,1.33
2022-09-15T11:23:49.226Z,1.25
2022-09-15T11:26:58.105Z,1.12
2022-09-15T11:30:24.529Z,1.80
2022-09-15T11:34:03.978Z,2.08
2022-09-15T11:37:25.599Z,1.58
2022-09-15T11:40:33.691Z,2.45
2022-09-15T11:43:45.983Z,2.03
2022-09-15T11:47:28.280Z,1.73
2022-09-15T12:50:39.200Z,1.62
2022-09-15T12:54:19.268Z,2.12
2022-09-15T12:57:25.685Z,1.30
2022-09-15T16:48:34.527Z,2.08
2022-09-15T16:51:37.816Z,2.25
2022-09-15T16:54:40.879Z,1.80
2022-09-15T16:57:44.000Z,2.17
2022-09-15T17:00:48.497Z,2.65
2022-09-15T17:03:51.748Z,3.08
2022-09-15T17:06:54.685Z,2.37
2022-09-15T17:09:57.901Z,3.05
2022-09-15T17:13:01.702Z,4.55
2022-09-15T17:16:04.945Z,4.30
2022-09-15T17:19:07.966Z,3.83
2022-09-15T17:22:11.397Z,3.97
2022-09-15T17:25:22.195Z,3.45
2022-09-15T17:28:30.598Z,3.67
2022-09-15T17:31:34.946Z,2.70
2022-09-15T17:34:38.298Z,2.95
2022-09-15T17:37:41.193Z,2.90
2022-09-15T17:40:44.582Z,2.60
2022-09-15T17:43:47.766Z,2.83
2022-09-15T17:46:51.683Z,2.72
2022-09-15T17:49:55.052Z,2.72
2022-09-15T17:52:59.129Z,3.30
2022-09-15T17:56:02.194Z,3.22
2022-09-15T17:59:05.629Z,3.65
2022-09-15T18:02:19.599Z,3.35
2022-09-15T18:05:26.822Z,2.95
2022-09-15T18:08:29.664Z,3.58
2022-09-15T18:11:33.133Z,3.17
2022-09-15T18:14:36.152Z,3.03
2022-09-15T18:17:39.491Z,2.90
2022-09-15T18:20:42.991Z,4.18
2022-09-15T18:23:46.142Z,4.12
2022-09-15T18:26:49.261Z,3.80
2022-09-15T18:29:52.126Z,4.10
2022-09-15T18:32:54.324Z,4.30
2022-09-15T18:35:59.003Z,4.62
2022-09-15T18:39:01.223Z,4.85
2022-09-15T18:42:03.935Z,5.62
2022-09-15T18:45:07.836Z,5.53
2022-09-15T18:48:12.846Z,4.22
2022-09-15T18:51:23.885Z,4.43
2022-09-15T18:54:34.703Z,4.60
2022-09-15T18:57:38.886Z,4.50
2022-09-15T19:00:41.879Z,4.15
2022-09-15T19:03:44.337Z,4.55
2022-09-15T19:06:46.850Z,4.47
2022-09-15T19:09:56.206Z,4.45
2022-09-15T19:12:59.017Z,4.30
2022-09-15T19:16:06.097Z,4.20
2022-09-15T19:19:08.629Z,3.92
2022-09-15T19:22:10.808Z,3.42
2022-09-15T19:25:13.741Z,3.97
2022-09-15T19:28:15.899Z,3.80
2022-09-15T19:31:18.441Z,4.30
2022-09-15T19:34:20.909Z,4.72
2022-09-15T19:37:23.590Z,3.85
2022-09-15T19:40:25.876Z,4.78
2022-09-15T19:43:28.804Z,4.35
2022-09-15T19:46:31.561Z,3.78
2022-09-15T19:49:34.143Z,3.97
2022-09-15T19:52:36.330Z,4.15
2022-09-15T19:55:38.808Z,3.92
2022-09-15T19:58:41.070Z,4.28
2022-09-15T20:01:43.520Z,4.20
2022-09-15T20:04:46.572Z,4.03
2022-09-15T20:07:48.903Z,4.03
2022-09-15T20:10:51.767Z,2.87
2022-09-15T20:13:54.615Z,4.20
2022-09-15T20:17:00.380Z,2.40
2022-09-15T20:20:03.769Z,2.97
2022-09-15T20:23:06.276Z,1.80
2022-09-15T20:26:10.815Z,2.22
2022-09-15T20:29:13.506Z,2.22
2022-09-15T20:32:15.669Z,2.40
2022-09-15T20:35:18.226Z,2.50
2022-09-15T20:38:21.036Z,2.30
2022-09-15T20:41:26.393Z,2.60
2022-09-15T20:44:28.540Z,2.87
2022-09-15T20:47:31.026Z,2.70
2022-09-15T20:50:33.155Z,2.80
2022-09-15T20:53:36.556Z,2.65
2022-09-15T20:56:38.738Z,2.60
2022-09-15T20:59:41.194Z,3.22
2022-09-15T21:02:43.413Z,2.60
2022-09-15T21:05:46.084Z,2.95
2022-09-15T21:08:49.072Z,3.10
2022-09-15T21:11:53.581Z,3.00
2022-09-15T21:14:57.873Z,3.33
2022-09-15T21:18:01.676Z,3.37
2022-09-15T21:21:07.316Z,3.65
2022-09-15T21:24:10.047Z,3.22
2022-09-15T21:27:27.547Z,3.45
2022-09-15T21:30:30.013Z,3.97
2022-09-15T21:33:32.867Z,3.78
2022-09-15T21:36:35.851Z,3.80
2022-09-15T21:39:37.947Z,3.80
2022-09-15T21:42:40.460Z,3.53
2022-09-15T21:45:42.757Z,3.92
2022-09-15T21:48:47.329Z,3.62
2022-09-15T21:51:49.710Z,3.87
2022-09-15T21:54:52.687Z,3.53
2022-09-15T21:57:55.061Z,4.12
2022-09-15T22:00:57.567Z,4.68
2022-09-15T22:04:02.217Z,4.28
2022-09-15T22:07:04.438Z,4.60
2022-09-15T22:10:07.448Z,4.50
2022-09-15T22:13:11.726Z,5.00
2022-09-15T22:16:17.922Z,4.18
2022-09-15T22:19:20.197Z,5.03
2022-09-15T22:22:23.624Z,4.53
2022-09-15T22:25:26.481Z,5.28
2022-09-15T22:28:29.059Z,5.03
2022-09-15T22:31:31.460Z,4.80
2022-09-15T22:34:33.988Z,3.97
2022-09-15T22:37:36.270Z,5.95
2022-09-15T22:40:38.875Z,4.18
2022-09-15T22:43:42.421Z,4.90
2022-09-15T22:46:44.889Z,4.30
2022-09-15T22:49:47.144Z,4.85
2022-09-15T22:52:50.868Z,4.30
2022-09-15T22:56:04.973Z,4.70
2022-09-15T22:59:07.487Z,5.60
2022-09-15T23:02:09.951Z,4.57
2022-09-15T23:05:12.778Z,4.20
2022-09-15T23:08:15.129Z,4.53
2022-09-15T23:11:17.667Z,4.18
2022-09-15T23:14:19.826Z,3.55
2022-09-15T23:17:22.867Z,4.20
2022-09-15T23:20:25.066Z,3.40
2022-09-15T23:23:28.224Z,3.47
2022-09-15T23:26:30.435Z,3.37
2022-09-15T23:29:33.375Z,3.50
2022-09-15T23:32:35.670Z,2.83
2022-09-15T23:35:38.127Z,3.10
2022-09-15T23:38:42.747Z,2.80
2022-09-15T23:41:45.221Z,3.20
2022-09-15T23:44:47.384Z,3.10
2022-09-15T23:47:49.946Z,2.55
2022-09-15T23:50:52.281Z,2.65
2022-09-15T23:53:55.218Z,3.20
2022-09-15T23:56:57.403Z,2.65
2022-09-15T23:59:59.888Z,2.33
